Time;durP1;ratioP1;P1;durP2;ratioP2;P2;SDS_P1;SDS_P2;PMS_P1;PMS_P2;Temp;Humidity;BMP_temperature;BMP_pressure;BME280_temperature;BME280_humidity;BME280_pressure;Samples;Min_cycle;Max_cycle;Signal;HPM_P1;HPM_P2
2021/03/06 00:00:19;;;;;;;16.98;6.40;;;;;;;-0.93;73.55;101939.25;5096932;28;20075;-77
2021/03/06 00:02:46;;;;;;;14.68;7.43;;;;;;;-0.96;73.77;101935.72;5096602;28;20448;-77
2021/03/06 00:05:14;;;;;;;12.65;6.78;;;;;;;-1.02;73.41;101930.41;5078869;28;20056;-76
2021/03/06 00:07:40;;;;;;;11.00;6.13;;;;;;;-0.97;73.34;101933.97;5096815;28;20341;-77
2021/03/06 00:10:13;;;;;;;17.98;6.40;;;;;;;-0.93;73.63;101947.13;5096301;28;20131;-77
2021/03/06 00:12:44;;;;;;;14.05;7.10;;;;;;;-0.96;73.70;101940.97;5096473;28;20395;-76
2021/03/06 00:15:12;;;;;;;;;;;;;;;-1.02;74.30;101930.41;5096048;28;20056;-77
2021/03/06 00:17:38;;;;;;;16.48;5.82;;;;;;;-1.02;73.92;101930.41;5096257;28;20135;-77
2021/03/06 00:20:06;;;;;;;14.65;6.68;;;;;;;-1.04;75.07;101937.34;5096523;28;20055;-77
2021/03/06 00:22:33;;;;;;;12.15;6.75;;;;;;;-1.07;74.82;101932.06;5096275;28;20055;-77
2021/03/06 00:24:59;;;;;;;11.02;5.97;;;;;;;-1.12;74.75;101936.34;5096598;28;20063;-77
2021/03/06 00:27:26;;;;;;;17.02;6.47;;;;;;;-1.11;74.63;101940.72;5096214;28;20441;-77
2021/03/06 00:29:52;;;;;;;11.70;6.13;;;;;;;-1.12;74.47;101937.25;5078389;28;20056;-77
2021/03/06 00:32:18;;;;;;;10.75;6.55;;;;;;;-1.15;74.99;101946.78;5099144;28;20048;-76
2021/03/06 00:34:45;;;;;;;12.07;6.28;;;;;;;-1.14;75.25;101946.78;5099915;28;20060;-77
2021/03/06 00:37:11;;;;;;;10.57;6.15;;;;;;;-1.10;75.03;101948.63;5080827;28;20055;-77
2021/03/06 00:39:37;;;;;;;15.10;6.25;;;;;;;-1.14;75.14;101945.94;5096261;28;20383;-77
2021/03/06 00:42:03;;;;;;;12.15;6.43;;;;;;;-1.18;74.53;101965.06;5078524;28;20048;-77
2021/03/06 00:44:30;;;;;;;14.63;6.25;;;;;;;-1.17;75.10;101964.19;5095926;28;20502;-77
2021/03/06 00:46:57;;;;;;;16.48;6.75;;;;;;;-1.25;75.08;101951.00;5078006;28;20103;-74
2021/03/06 00:49:24;;;;;;;12.80;6.18;;;;;;;-1.27;76.02;101957.91;5079384;28;20052;-76
2021/03/06 00:51:51;;;;;;;12.13;6.13;;;;;;;-1.33;75.40;101961.31;5080523;28;20083;-77
2021/03/06 00:54:17;;;;;;;12.57;6.57;;;;;;;-1.33;75.97;101963.06;5098120;28;20056;-77
2021/03/06 00:56:45;;;;;;;15.75;6.93;;;;;;;-1.29;75.98;101968.41;5111111;28;20123;-77
2021/03/06 00:59:11;;;;;;;13.73;8.00;;;;;;;-1.35;75.85;101965.66;5116872;28;20028;-76
2021/03/06 01:01:37;;;;;;;14.52;6.80;;;;;;;-1.44;75.50;101955.91;5117114;28;20040;-76
2021/03/06 01:04:03;;;;;;;14.85;6.35;;;;;;;-1.48;76.14;101951.44;5088991;28;20113;-77
2021/03/06 01:06:31;;;;;;;13.02;6.18;;;;;;;-1.41;76.06;101962.94;5099054;28;20097;-76
2021/03/06 01:08:57;;;;;;;15.32;6.65;;;;;;;-1.46;77.33;101964.59;5079801;28;20121;-76
2021/03/06 01:11:23;;;;;;;15.05;6.85;;;;;;;-1.51;77.52;101960.13;5095967;28;20047;-76
2021/03/06 01:13:49;;;;;;;15.13;6.18;;;;;;;-1.54;78.01;101949.63;5095400;28;20090;-76
2021/03/06 01:16:15;;;;;;;14.88;6.85;;;;;;;-1.66;77.49;101947.66;5095368;28;20453;-77
2021/03/06 01:18:42;;;;;;;12.75;6.75;;;;;;;-1.61;77.12;101945.13;5095676;28;20056;-76
2021/03/06 01:21:08;;;;;;;15.40;6.40;;;;;;;-1.57;77.59;101949.53;5095327;28;20135;-76
2021/03/06 01:23:34;;;;;;;9.07;5.80;;;;;;;-1.55;77.86;101958.34;5095807;28;20059;-77
2021/03/06 01:26:00;;;;;;;10.73;5.78;;;;;;;-1.64;78.12;101959.03;5077359;28;20059;-76
2021/03/06 01:28:28;;;;;;;14.55;6.22;;;;;;;-1.65;78.69;101953.75;5077092;28;20445;-76
2021/03/06 01:30:54;;;;;;;15.10;6.40;;;;;;;-1.64;77.89;101958.13;5060846;28;20071;-76
2021/03/06 01:33:21;;;;;;;13.52;6.45;;;;;;;-1.65;77.63;101948.53;5077957;28;20101;-76
2021/03/06 01:35:47;;;;;;;13.90;5.90;;;;;;;-1.73;78.76;101940.53;5095572;28;20044;-76
2021/03/06 01:38:14;;;;;;;10.38;6.22;;;;;;;-1.68;78.03;101938.88;5077273;28;20052;-76
2021/03/06 01:40:40;;;;;;;12.15;6.47;;;;;;;-1.71;78.75;101945.78;5094939;28;20047;-76
2021/03/06 01:43:09;;;;;;;17.40;6.75;;;;;;;-1.71;78.53;101941.44;5095324;28;20052;-76
2021/03/06 01:45:37;;;;;;;14.25;6.47;;;;;;;-1.72;78.75;101944.94;5077371;28;20097;-76
2021/03/06 01:48:04;;;;;;;10.73;6.28;;;;;;;-1.69;78.21;101937.13;5095344;28;20127;-76
2021/03/06 01:50:40;;;;;;;13.18;7.15;;;;;;;-1.73;77.94;101923.94;5094966;28;20467;-76
2021/03/06 01:53:08;;;;;;;14.57;6.80;;;;;;;-1.81;78.65;101929.91;5095094;28;20350;-77
2021/03/06 01:55:37;;;;;;;11.07;6.32;;;;;;;-1.80;78.19;101929.06;5080781;28;20048;-76
2021/03/06 01:58:05;;;;;;;13.63;6.35;;;;;;;-1.79;79.18;101940.44;5095291;28;20097;-76
2021/03/06 02:00:32;;;;;;;9.80;6.22;;;;;;;-1.87;78.57;101929.81;5098491;28;20425;-76
2021/03/06 02:02:59;;;;;;;12.10;6.35;;;;;;;-1.83;78.66;101934.25;5098319;28;20051;-76
2021/03/06 02:05:26;;;;;;;13.50;5.72;;;;;;;-1.83;78.53;101931.63;5098770;28;20056;-77
2021/03/06 02:07:53;;;;;;;13.10;6.13;;;;;;;-1.86;78.83;101931.56;5098408;28;20421;-76
2021/03/06 02:10:28;;;;;;;16.63;6.20;;;;;;;-1.89;79.04;101928.91;5102438;28;20721;-76
2021/03/06 02:13:11;;;;;;;19.10;6.38;;;;;;;-1.89;78.87;101925.38;5101314;28;20063;-76
2021/03/06 02:16:14;;;;;;;16.33;6.45;;;;;;;-1.95;79.26;101926.16;5100306;28;20055;-76
2021/03/06 02:19:07;;;;;;;12.25;6.05;;;;;;;-2.02;78.87;101916.44;5101382;28;20131;-76
2021/03/06 02:22:01;;;;;;;14.40;7.18;;;;;;;-2.00;79.47;101919.94;5100785;28;20052;-76
2021/03/06 02:25:12;;;;;;;15.00;6.70;;;;;;;-2.05;79.19;101918.09;5101699;28;20475;-77
2021/03/06 02:28:02;;;;;;;11.88;6.43;;;;;;;-2.06;78.79;101925.94;5060970;28;20063;-76
2021/03/06 02:30:31;;;;;;;14.55;6.22;;;;;;;-2.04;79.22;101921.63;5098333;28;20048;-77
2021/03/06 02:33:01;;;;;;;12.10;6.97;;;;;;;-2.00;79.57;101920.84;5099278;28;20048;-77
2021/03/06 02:35:30;;;;;;;10.53;6.03;;;;;;;-2.12;79.60;101900.53;5097575;28;20097;-76
2021/03/06 02:38:09;;;;;;;16.52;6.85;;;;;;;-2.10;78.83;101909.31;5101287;28;20097;-77
2021/03/06 02:40:40;;;;;;;12.55;6.13;;;;;;;-2.09;79.33;101916.31;5099041;28;20067;-77
2021/03/06 02:43:09;;;;;;;;;;;;;;;-2.00;78.86;101917.34;5098488;28;20059;-76
2021/03/06 02:45:37;;;;;;;17.38;5.85;;;;;;;-2.15;80.21;101915.28;5098129;28;19934;-77
2021/03/06 02:48:04;;;;;;;18.90;6.80;;;;;;;-2.35;79.70;101887.88;5098385;28;20059;-77
2021/03/06 02:50:31;;;;;;;10.02;6.68;;;;;;;-2.16;79.90;101911.81;5080165;28;20064;-76
2021/03/06 02:52:57;;;;;;;12.13;5.93;;;;;;;-2.14;78.80;101917.94;5098085;28;20106;-76
2021/03/06 02:55:38;;;;;;;13.00;6.30;;;;;;;-2.11;79.34;101915.41;5082015;28;20056;-76
2021/03/06 02:58:14;;;;;;;9.70;6.25;;;;;;;-2.12;79.12;101907.50;5079980;28;20044;-76
2021/03/06 03:00:45;;;;;;;12.90;5.95;;;;;;;-2.23;79.69;101904.69;5080153;28;20048;-76
2021/03/06 03:03:14;;;;;;;9.80;5.82;;;;;;;-2.20;80.27;101912.56;5097969;28;20440;-77
2021/03/06 03:06:07;;;;;;;11.07;5.82;;;;;;;-2.21;80.18;101922.19;5098144;28;20055;-76
2021/03/06 03:08:59;;;;;;;12.90;6.97;;;;;;;-2.24;80.54;101927.31;5080160;28;20052;-79
2021/03/06 03:11:35;;;;;;;13.38;5.90;;;;;;;-2.27;80.34;101924.66;5079496;28;20063;-75
2021/03/06 03:14:03;;;;;;;14.90;6.88;;;;;;;-2.32;80.60;101923.69;5097801;28;20059;-75
2021/03/06 03:16:40;;;;;;;21.17;6.90;;;;;;;-2.34;80.12;101926.25;5097443;28;20429;-78
2021/03/06 03:19:34;;;;;;;11.35;6.93;;;;;;;-2.32;80.42;101928.91;5098128;28;20056;-76
2021/03/06 03:22:06;;;;;;;14.38;6.05;;;;;;;-2.33;80.18;101930.63;5079905;28;20060;-75
2021/03/06 03:24:36;;;;;;;12.75;6.03;;;;;;;-2.46;80.21;101921.66;5098923;28;20047;-75
2021/03/06 03:27:08;;;;;;;11.07;6.03;;;;;;;-2.47;80.69;101913.75;5116617;28;20059;-75
2021/03/06 03:29:39;;;;;;;11.73;6.38;;;;;;;-2.41;80.34;101913.03;5117006;28;20074;-74
2021/03/06 03:32:07;;;;;;;;;;;;;;;-2.33;79.83;101927.16;5106137;28;20142;-76
2021/03/06 03:34:35;;;;;;;13.18;6.18;;;;;;;-2.30;79.71;101926.34;5097729;28;19919;-76
2021/03/06 03:37:03;;;;;;;17.92;8.60;;;;;;;-2.39;80.20;101930.50;5097572;28;20059;-75
2021/03/06 03:39:30;;;;;;;14.93;7.18;;;;;;;-2.46;80.21;101931.22;5091475;28;20052;-75
2021/03/06 03:41:59;;;;;;;10.18;6.50;;;;;;;-2.48;80.96;101925.09;5077069;28;20059;-75
2021/03/06 03:44:26;;;;;;;12.00;6.03;;;;;;;-2.44;81.21;101926.94;5076755;28;20090;-75
2021/03/06 03:46:54;;;;;;;16.40;6.30;;;;;;;-2.45;81.24;101930.41;5076448;28;20045;-76
2021/03/06 03:49:21;;;;;;;16.90;7.13;;;;;;;-2.48;81.37;101935.53;5076650;28;20048;-76
2021/03/06 03:51:48;;;;;;;13.88;6.50;;;;;;;-2.57;81.62;101920.53;5076678;28;20056;-74
2021/03/06 03:54:15;;;;;;;12.68;6.20;;;;;;;-2.53;81.24;101921.47;5076500;28;20056;-77
2021/03/06 03:56:42;;;;;;;12.07;6.68;;;;;;;-2.55;81.04;101918.84;5074832;28;20056;-76
2021/03/06 03:59:09;;;;;;;12.63;7.32;;;;;;;-2.54;80.94;101919.72;5095912;28;20052;-76
2021/03/06 04:01:43;;;;;;;12.60;7.00;;;;;;;-2.53;80.92;101930.22;5095782;28;20056;-77
2021/03/06 04:04:27;;;;;;;10.60;6.13;;;;;;;-2.51;81.46;101928.50;5096477;28;20052;-76
2021/03/06 04:06:54;;;;;;;13.18;6.75;;;;;;;-2.58;81.25;101929.22;5095263;28;20048;-76
2021/03/06 04:09:20;;;;;;;10.60;6.72;;;;;;;-2.74;81.35;101907.97;5096353;28;20048;-77
2021/03/06 04:11:46;;;;;;;16.00;7.25;;;;;;;-2.65;81.59;101938.69;5096504;28;20055;-77
2021/03/06 04:14:13;;;;;;;12.98;6.22;;;;;;;-2.64;81.23;101926.47;5095670;28;20051;-76
2021/03/06 04:16:39;;;;;;;11.15;6.63;;;;;;;-2.66;82.20;101941.25;5096282;28;20055;-76
2021/03/06 04:19:06;;;;;;;16.65;6.75;;;;;;;-2.66;81.98;101939.53;5096237;28;20425;-77
2021/03/06 04:21:32;;;;;;;16.42;7.15;;;;;;;-2.64;81.57;101932.59;5095327;28;20456;-76
2021/03/06 04:23:58;;;;;;;13.77;7.85;;;;;;;-2.66;81.18;101929.06;5096380;28;20048;-76
2021/03/06 04:26:31;;;;;;;15.68;6.53;;;;;;;-2.71;81.56;101929.81;5096036;28;20044;-76
2021/03/06 04:28:57;;;;;;;11.80;7.00;;;;;;;-2.67;81.86;101935.13;5094847;28;20044;-76
2021/03/06 04:31:23;;;;;;;17.27;7.68;;;;;;;-2.74;82.15;101939.34;5094827;28;20123;-76
2021/03/06 04:33:49;;;;;;;17.42;8.10;;;;;;;-2.75;81.95;101940.19;5094780;28;20047;-76
2021/03/06 04:36:16;;;;;;;14.93;7.22;;;;;;;-2.90;82.18;101927.66;5077999;28;20055;-76
2021/03/06 04:38:42;;;;;;;13.82;7.18;;;;;;;-2.79;81.98;101947.94;5095122;28;20133;-76
2021/03/06 04:41:08;;;;;;;14.52;7.13;;;;;;;-2.81;82.75;101940.06;5095797;28;20051;-76
2021/03/06 04:43:34;;;;;;;11.82;6.97;;;;;;;-2.82;82.24;101950.47;5096053;28;20056;-76
2021/03/06 04:46:00;;;;;;;13.05;6.85;;;;;;;-2.83;82.58;101948.69;5095647;28;20048;-76
2021/03/06 04:48:26;;;;;;;10.80;6.65;;;;;;;-2.81;82.38;101949.59;5095862;28;20070;-76
2021/03/06 04:50:53;;;;;;;10.90;6.25;;;;;;;-2.88;83.09;101951.22;5095628;28;20059;-76
2021/03/06 04:53:19;;;;;;;14.57;7.05;;;;;;;-2.82;82.15;101950.47;5094441;28;20150;-76
2021/03/06 04:55:45;;;;;;;14.63;7.38;;;;;;;-2.90;82.20;101955.50;5077386;28;20445;-77
2021/03/06 04:58:12;;;;;;;13.88;7.03;;;;;;;-2.88;82.75;101949.47;5095579;28;20044;-76
2021/03/06 05:00:38;;;;;;;12.40;7.00;;;;;;;-2.84;82.83;101954.78;5095447;28;20059;-76
2021/03/06 05:03:04;;;;;;;15.20;7.38;;;;;;;-2.95;82.77;101937.09;5095350;28;20051;-77
2021/03/06 05:05:31;;;;;;;12.50;6.85;;;;;;;-2.88;82.99;101948.59;5061597;28;20075;-76
2021/03/06 05:07:57;;;;;;;15.95;6.60;;;;;;;-2.92;82.70;101955.47;5077879;28;20047;-76
2021/03/06 05:10:24;;;;;;;10.50;7.03;;;;;;;-2.89;82.87;101958.16;5077788;28;20082;-76
2021/03/06 05:12:51;;;;;;;14.70;7.25;;;;;;;-2.83;82.35;101959.16;5095707;28;20086;-76
2021/03/06 05:15:19;;;;;;;14.77;7.95;;;;;;;-2.93;83.42;101961.56;5095548;28;20079;-77
2021/03/06 05:17:45;;;;;;;18.52;7.40;;;;;;;-2.97;82.99;101954.47;5095244;28;20044;-76
2021/03/06 05:20:12;;;;;;;16.38;8.32;;;;;;;-3.01;83.34;101953.53;5095581;28;20054;-76
2021/03/06 05:22:38;;;;;;;13.52;7.68;;;;;;;-3.23;82.92;101919.91;5095378;28;20052;-76
2021/03/06 05:25:05;;;;;;;15.50;8.15;;;;;;;-3.00;82.79;101954.38;5094135;28;20434;-76
2021/03/06 05:27:31;;;;;;;17.35;7.65;;;;;;;-3.00;83.52;101960.50;5095448;28;20052;-78
2021/03/06 05:29:58;;;;;;;20.10;8.75;;;;;;;-3.06;83.40;101947.31;5095295;28;20052;-76
2021/03/06 05:32:24;;;;;;;13.15;7.25;;;;;;;-3.06;83.87;101962.09;5077661;28;20062;-76
2021/03/06 05:34:50;;;;;;;13.93;7.43;;;;;;;-3.07;83.23;101965.53;5099574;28;20048;-77
2021/03/06 05:37:17;;;;;;;10.75;7.05;;;;;;;-3.10;83.85;101966.38;5081867;28;20051;-76
2021/03/06 05:39:43;;;;;;;18.95;8.35;;;;;;;-3.11;83.43;101956.75;5098490;28;20094;-76
2021/03/06 05:42:11;;;;;;;12.27;8.20;;;;;;;-3.11;83.54;101951.53;5099408;28;20052;-76
2021/03/06 05:44:41;;;;;;;16.10;7.82;;;;;;;-3.12;83.81;101952.38;5099866;28;20059;-76
2021/03/06 05:47:07;;;;;;;18.55;8.00;;;;;;;-3.14;84.09;101960.16;5098487;28;20054;-76
2021/03/06 05:49:34;;;;;;;20.38;7.78;;;;;;;-3.17;83.55;101954.88;5081882;28;20048;-76
2021/03/06 05:52:05;;;;;;;12.73;6.80;;;;;;;-3.17;83.90;101953.97;5107213;28;20133;-74
2021/03/06 05:54:34;;;;;;;15.80;7.65;;;;;;;-3.12;83.88;101957.59;5117802;28;20055;-76
2021/03/06 05:57:02;;;;;;;14.93;6.88;;;;;;;-3.08;84.19;101959.44;5114172;28;20048;-76
2021/03/06 05:59:29;;;;;;;13.93;7.00;;;;;;;-3.16;83.54;101961.00;5101555;28;20138;-76
2021/03/06 06:01:56;;;;;;;12.50;7.43;;;;;;;-3.15;84.24;101961.00;5099904;28;20044;-77
2021/03/06 06:04:28;;;;;;;17.05;7.78;;;;;;;-3.19;84.06;101966.13;5099235;28;20051;-75
2021/03/06 06:06:56;;;;;;;19.33;7.63;;;;;;;-3.22;83.67;101958.22;5100042;28;20048;-77
2021/03/06 06:09:23;;;;;;;19.40;7.47;;;;;;;-3.21;84.62;101965.22;5099530;28;20105;-76
2021/03/06 06:11:49;;;;;;;14.20;6.88;;;;;;;-3.15;83.71;101960.16;5099123;28;20422;-78
2021/03/06 06:14:35;;;;;;;13.23;7.65;;;;;;;-3.17;84.29;101960.09;5100131;28;20087;-76
2021/03/06 06:17:08;;;;;;;11.88;6.93;;;;;;;-3.15;83.99;101965.38;5099745;28;20044;-75
2021/03/06 06:19:36;;;;;;;15.77;7.57;;;;;;;-3.17;84.58;101967.03;5099299;28;20135;-76
2021/03/06 06:22:21;;;;;;;11.63;7.15;;;;;;;-3.14;83.97;101967.13;5099125;28;20126;-75
2021/03/06 06:24:49;;;;;;;10.48;6.80;;;;;;;-3.13;84.08;101963.66;5099225;28;20048;-76
2021/03/06 06:27:32;;;;;;;12.57;7.40;;;;;;;-3.14;84.11;101962.78;5081246;28;20051;-77
2021/03/06 06:30:11;;;;;;;13.70;6.82;;;;;;;-3.23;84.35;101953.84;5099527;28;20051;-77
2021/03/06 06:32:45;;;;;;;17.55;8.25;;;;;;;-3.10;84.80;101969.00;5099454;28;20069;-76
2021/03/06 06:35:16;;;;;;;11.32;6.93;;;;;;;-3.09;84.28;101972.47;5095893;28;20138;-75
2021/03/06 06:37:58;;;;;;;14.50;8.25;;;;;;;-3.07;84.94;101973.38;5098498;28;20044;-75
2021/03/06 06:40:27;;;;;;;16.50;8.23;;;;;;;-3.03;84.34;101970.91;5097759;28;20048;-76
2021/03/06 06:42:54;;;;;;;21.90;9.43;;;;;;;-3.06;84.26;101973.41;5094906;28;20062;-75
2021/03/06 06:45:21;;;;;;;15.50;7.72;;;;;;;-3.04;84.01;101976.09;5098222;28;20115;-75
2021/03/06 06:47:50;;;;;;;14.18;7.88;;;;;;;-3.05;84.29;101972.56;5098617;28;20422;-75
2021/03/06 06:50:31;;;;;;;14.40;8.57;;;;;;;-2.95;84.27;101962.38;5098662;28;20333;-76
2021/03/06 06:52:57;;;;;;;13.07;8.48;;;;;;;-2.87;84.25;101974.75;5092524;28;20048;-76
2021/03/06 06:55:53;;;;;;;18.65;8.68;;;;;;;-2.78;83.30;101978.44;5079789;28;20048;-76
2021/03/06 06:58:39;;;;;;;15.88;8.20;;;;;;;-2.75;84.18;101981.13;5073563;28;20073;-75
2021/03/06 07:01:28;;;;;;;16.02;8.60;;;;;;;-2.74;83.92;101980.28;5098541;28;20054;-74
2021/03/06 07:04:05;;;;;;;15.30;7.65;;;;;;;-2.61;84.03;101990.16;5099215;28;20056;-75
2021/03/06 07:06:33;;;;;;;14.82;7.80;;;;;;;-2.56;83.00;101982.41;5101485;28;20372;-74
2021/03/06 07:09:11;;;;;;;12.32;8.70;;;;;;;-2.55;84.24;101988.53;5084828;28;20052;-72
2021/03/06 07:11:38;;;;;;;12.48;7.20;;;;;;;-2.56;83.87;101992.88;5082111;28;20048;-74
2021/03/06 07:14:05;;;;;;;14.85;7.63;;;;;;;-2.48;82.82;101999.19;5097446;28;20063;-74
2021/03/06 07:16:54;;;;;;;13.25;7.97;;;;;;;-2.39;83.40;102001.09;5099321;28;20074;-75
2021/03/06 07:19:20;;;;;;;10.75;7.47;;;;;;;-2.33;83.98;101998.63;5082921;28;20056;-74
2021/03/06 07:21:48;;;;;;;15.32;8.27;;;;;;;-2.31;83.93;101996.06;5100712;28;20096;-75
2021/03/06 07:24:15;;;;;;;15.75;8.60;;;;;;;-2.24;83.80;102005.81;5100882;28;20056;-75
2021/03/06 07:26:42;;;;;;;13.38;7.97;;;;;;;-2.14;83.22;102006.03;5099081;28;20044;-76
2021/03/06 07:29:08;;;;;;;14.65;7.75;;;;;;;-2.19;82.98;101995.44;5099017;28;20055;-74
2021/03/06 07:31:37;;;;;;;17.83;8.48;;;;;;;-2.03;82.35;102014.09;5099276;28;20047;-78
2021/03/06 07:34:11;;;;;;;20.50;8.88;;;;;;;-2.06;82.40;101994.84;5077993;28;20295;-75
2021/03/06 07:36:40;;;;;;;17.63;7.97;;;;;;;-1.87;82.52;102015.31;5087820;28;20076;-76
2021/03/06 07:39:06;;;;;;;23.05;8.77;;;;;;;-1.83;82.94;102022.34;5080192;28;20135;-77
2021/03/06 07:41:39;;;;;;;20.08;8.43;;;;;;;-1.78;82.56;102016.34;5064449;28;20056;-75
2021/03/06 07:44:13;;;;;;;11.95;8.55;;;;;;;-1.85;81.70;102000.50;5097908;28;20051;-79
2021/03/06 07:46:40;;;;;;;15.07;8.13;;;;;;;-1.58;80.78;102023.72;5097962;28;20051;-77
2021/03/06 07:49:12;;;;;;;13.68;7.72;;;;;;;-1.53;80.69;102016.84;5097247;28;20051;-75
2021/03/06 07:51:46;;;;;;;16.17;7.93;;;;;;;-1.38;79.39;102020.59;5061201;28;20430;-75
2021/03/06 07:54:16;;;;;;;15.18;8.95;;;;;;;-1.28;78.29;102022.56;5095150;28;20044;-75
2021/03/06 07:56:44;;;;;;;14.77;8.63;;;;;;;-1.18;78.34;102025.34;5093519;28;20044;-76
2021/03/06 07:59:46;;;;;;;7.85;5.82;;;;;;;-1.10;77.78;102024.63;5096620;28;20047;-78
2021/03/06 08:02:35;;;;;;;11.57;6.97;;;;;;;-1.01;77.58;102026.53;5094247;28;20044;-74
2021/03/06 08:05:07;;;;;;;;;;;;;;;-0.88;77.24;102021.50;5096781;28;20044;-72
2021/03/06 08:07:39;;;;;;;12.27;7.20;;;;;;;-0.90;76.22;102000.50;5094353;28;20217;-75
2021/03/06 08:10:05;;;;;;;13.45;6.80;;;;;;;-0.69;76.41;102026.16;5096081;28;20383;-75
2021/03/06 08:12:33;;;;;;;13.10;7.65;;;;;;;-0.58;75.02;102026.34;5093609;28;20437;-77
2021/03/06 08:15:25;;;;;;;15.23;7.63;;;;;;;-0.50;75.30;102022.97;5094993;28;20044;-76
2021/03/06 08:17:51;;;;;;;20.80;9.45;;;;;;;-0.42;75.48;102019.56;5096330;28;20044;-72
2021/03/06 08:20:31;;;;;;;18.65;10.35;;;;;;;-0.34;75.27;102018.78;5096635;28;20063;-74
2021/03/06 08:23:17;;;;;;;23.00;11.52;;;;;;;-0.22;74.51;102013.72;5074336;28;20048;-72
2021/03/06 08:25:43;;;;;;;19.58;10.60;;;;;;;-0.11;72.36;102013.88;5093596;28;20051;-73
2021/03/06 08:28:28;;;;;;;20.65;10.00;;;;;;;0.02;72.75;102017.56;5110652;28;20058;-75
2021/03/06 08:30:55;;;;;;;16.58;9.35;;;;;;;0.01;71.82;102005.28;5111674;28;20048;-77
2021/03/06 08:33:22;;;;;;;15.90;9.18;;;;;;;0.19;71.32;102015.13;5101440;28;20069;-79
2021/03/06 08:35:49;;;;;;;13.00;8.15;;;;;;;0.24;71.44;102002.06;5096106;28;20429;-75
2021/03/06 08:38:31;;;;;;;11.02;7.75;;;;;;;0.27;70.18;101981.06;5097260;28;20418;-80
2021/03/06 08:40:58;;;;;;;10.95;7.35;;;;;;;0.26;70.36;101977.56;5093930;28;20074;-74
2021/03/06 08:43:25;;;;;;;12.32;6.78;;;;;;;0.56;69.93;102003.28;5095269;28;20047;-77
2021/03/06 08:45:51;;;;;;;13.30;6.53;;;;;;;0.67;70.22;102012.16;5095075;28;20044;-73
2021/03/06 08:48:21;;;;;;;14.90;6.80;;;;;;;0.71;69.88;102005.19;5095400;28;20044;-76
2021/03/06 08:50:48;;;;;;;15.27;6.88;;;;;;;0.83;69.79;102007.03;5095591;28;20099;-75
2021/03/06 08:53:15;;;;;;;14.73;6.32;;;;;;;0.83;69.00;102010.56;5095517;28;20047;-74
2021/03/06 08:55:45;;;;;;;12.77;6.63;;;;;;;0.84;68.43;101993.91;5077298;28;20048;-73
2021/03/06 08:58:13;;;;;;;14.52;6.38;;;;;;;1.06;67.76;102005.50;5094990;28;20052;-75
2021/03/06 09:00:45;;;;;;;12.75;6.38;;;;;;;1.13;68.22;102005.56;5095434;28;20105;-75
2021/03/06 09:03:20;;;;;;;11.18;5.90;;;;;;;1.16;68.63;101992.44;5095269;28;20052;-75
2021/03/06 09:05:50;;;;;;;11.45;5.82;;;;;;;1.26;68.98;102006.53;5092439;28;20048;-75
2021/03/06 09:08:25;;;;;;;11.73;6.65;;;;;;;1.33;68.31;101993.44;5089781;28;20066;-77
2021/03/06 09:10:53;;;;;;;11.80;6.38;;;;;;;1.40;68.31;101998.72;5093842;28;20048;-79
2021/03/06 09:13:22;;;;;;;13.25;6.70;;;;;;;1.53;68.59;101999.72;5070285;28;20488;-77
2021/03/06 09:16:00;;;;;;;11.57;6.75;;;;;;;1.56;68.09;101995.34;5075100;28;20048;-75
2021/03/06 09:18:35;;;;;;;10.15;5.78;;;;;;;1.71;66.34;101998.94;5087819;28;20052;-76
2021/03/06 09:21:10;;;;;;;9.48;6.72;;;;;;;1.79;65.65;102006.88;5069008;28;20076;-75
2021/03/06 09:23:42;;;;;;;9.52;5.18;;;;;;;1.89;65.94;102004.31;5086637;28;20418;-75
2021/03/06 09:26:12;;;;;;;11.68;5.78;;;;;;;2.00;64.24;102003.47;5089811;28;20106;-79
2021/03/06 09:28:38;;;;;;;8.52;4.85;;;;;;;2.06;63.92;102000.00;5090186;28;20376;-75
2021/03/06 09:31:21;;;;;;;11.45;6.78;;;;;;;2.20;63.96;102007.94;5095165;28;20044;-75
2021/03/06 09:33:50;;;;;;;9.80;6.20;;;;;;;2.21;63.39;102010.56;5095337;28;20520;-77
2021/03/06 09:36:20;;;;;;;12.30;5.50;;;;;;;2.34;63.57;102008.84;5094817;28;20048;-79
2021/03/06 09:39:00;;;;;;;12.10;5.47;;;;;;;2.44;63.41;102013.28;5092007;28;20044;-78
2021/03/06 09:41:33;;;;;;;11.98;5.60;;;;;;;2.52;63.57;102015.06;5074306;28;20434;-78
2021/03/06 09:44:01;;;;;;;12.65;5.57;;;;;;;2.69;63.10;102015.09;5074235;28;20707;-77
2021/03/06 09:46:31;;;;;;;11.07;5.05;;;;;;;2.68;61.42;102016.84;5073609;28;20424;-78
2021/03/06 09:48:58;;;;;;;10.77;5.55;;;;;;;2.81;61.80;102015.13;5074886;28;20048;-79
2021/03/06 09:51:38;;;;;;;8.70;5.25;;;;;;;2.80;60.72;101999.28;5074310;28;20052;-78
2021/03/06 09:54:04;;;;;;;12.65;6.28;;;;;;;2.80;60.49;102000.19;5073697;28;20102;-78
2021/03/06 09:56:31;;;;;;;9.63;6.43;;;;;;;2.92;60.61;102007.22;5056705;28;20342;-76
2021/03/06 09:59:05;;;;;;;9.52;5.43;;;;;;;2.99;60.69;102005.44;5073570;28;20114;-77
2021/03/06 10:01:34;;;;;;;10.90;5.82;;;;;;;3.08;60.61;101987.00;5074625;28;20049;-77
2021/03/06 10:04:15;;;;;;;12.52;5.78;;;;;;;3.30;60.06;101988.72;5056914;28;20396;-78
2021/03/06 10:06:44;;;;;;;10.77;5.63;;;;;;;3.44;59.03;101984.34;5074960;28;20131;-78
2021/03/06 10:09:12;;;;;;;10.95;5.38;;;;;;;3.52;59.39;101994.88;5074554;28;20060;-77
2021/03/06 10:11:40;;;;;;;10.40;4.93;;;;;;;3.62;57.22;101983.41;5074829;28;20110;-77
2021/03/06 10:14:08;;;;;;;7.68;4.95;;;;;;;3.73;57.09;101987.78;5056912;28;20449;-78
2021/03/06 10:16:48;;;;;;;8.30;5.00;;;;;;;3.84;55.85;101988.63;5074653;28;20052;-76
2021/03/06 10:19:17;;;;;;;8.57;5.40;;;;;;;3.89;56.58;101973.66;5074437;28;20358;-77
2021/03/06 10:21:58;;;;;;;9.48;4.88;;;;;;;4.07;56.07;101987.66;5078160;28;20091;-77
2021/03/06 10:24:24;;;;;;;9.52;5.22;;;;;;;4.05;53.98;101978.88;5078300;28;20052;-77
2021/03/06 10:27:01;;;;;;;9.05;4.97;;;;;;;4.22;55.09;101978.78;5078186;28;20048;-78
2021/03/06 10:29:29;;;;;;;7.40;4.65;;;;;;;4.26;53.51;101977.00;5078239;28;20052;-77
2021/03/06 10:31:55;;;;;;;8.80;5.20;;;;;;;4.34;54.59;101973.44;5078074;28;20079;-77
2021/03/06 10:34:32;;;;;;;6.88;4.50;;;;;;;4.43;55.17;101980.44;5078105;28;20060;-77
2021/03/06 10:37:05;;;;;;;10.75;5.25;;;;;;;4.55;53.07;101968.91;5077599;28;20049;-80
2021/03/06 10:39:32;;;;;;;8.68;4.70;;;;;;;4.67;51.45;101957.34;5083712;28;20048;-77
2021/03/06 10:41:59;;;;;;;9.02;4.25;;;;;;;4.83;51.33;101966.06;5098353;28;20055;-76
2021/03/06 10:44:41;;;;;;;7.88;5.00;;;;;;;4.90;51.34;101966.88;5098303;28;20048;-77
2021/03/06 10:47:08;;;;;;;7.60;5.13;;;;;;;4.98;51.84;101966.81;5098824;28;20051;-76
2021/03/06 10:49:43;;;;;;;9.38;5.80;;;;;;;5.06;51.39;101958.81;5099006;28;20353;-78
2021/03/06 10:52:28;;;;;;;7.47;4.55;;;;;;;5.23;51.13;101975.41;5111623;28;20062;-75
2021/03/06 10:54:58;;;;;;;8.32;4.80;;;;;;;5.24;50.37;101968.34;5116101;28;20051;-76
2021/03/06 10:57:25;;;;;;;10.15;5.03;;;;;;;5.13;50.07;101960.50;5084918;28;20058;-76
2021/03/06 10:59:52;;;;;;;8.52;5.93;;;;;;;5.13;50.02;101969.31;5081458;28;20429;-76
2021/03/06 11:02:27;;;;;;;9.93;5.00;;;;;;;5.22;49.21;101956.91;5080634;28;20101;-76
2021/03/06 11:04:55;;;;;;;8.82;5.22;;;;;;;5.30;49.37;101968.28;5098221;28;20109;-78
2021/03/06 11:07:29;;;;;;;6.38;4.78;;;;;;;5.43;49.40;101966.38;5080971;28;20048;-76
2021/03/06 11:09:57;;;;;;;8.77;5.00;;;;;;;5.56;51.44;101960.06;5098926;28;20063;-79
2021/03/06 11:12:28;;;;;;;11.23;6.15;;;;;;;5.60;50.65;101962.69;5080856;28;20044;-76
2021/03/06 11:15:07;;;;;;;7.63;5.15;;;;;;;5.81;50.36;101966.84;5097726;28;20051;-76
2021/03/06 11:17:34;;;;;;;8.15;5.13;;;;;;;5.73;49.38;101955.47;5079971;28;20040;-75
2021/03/06 11:20:03;;;;;;;11.82;5.15;;;;;;;5.85;50.80;101960.63;5097445;28;20056;-77
2021/03/06 11:22:29;;;;;;;7.05;4.82;;;;;;;5.90;49.60;101958.81;5097458;28;20067;-78
2021/03/06 11:24:58;;;;;;;7.20;4.55;;;;;;;5.97;47.48;101952.53;5097715;28;20075;-79
2021/03/06 11:27:24;;;;;;;10.30;5.53;;;;;;;6.03;47.53;101948.94;5097351;28;20051;-77
2021/03/06 11:29:52;;;;;;;7.80;4.43;;;;;;;6.24;48.10;101958.41;5097378;28;20055;-79
2021/03/06 11:32:21;;;;;;;9.50;5.50;;;;;;;6.28;45.62;101955.69;5096862;28;20048;-78
2021/03/06 11:34:47;;;;;;;7.07;5.45;;;;;;;6.32;45.49;101950.31;5097418;28;20670;-77
2021/03/06 11:37:15;;;;;;;7.40;4.78;;;;;;;6.38;46.00;101950.22;5064384;28;20048;-76